sensor_id;sensor_type;location;lat;lon;timestamp;pressure;altitude;pressure_sealevel;temperature;humidity
50282;BME280;36176;51.506;10.272;2023-05-24T00:00:29;99969.53;;;6.56;88.00
50282;BME280;36176;51.506;10.272;2023-05-24T00:02:56;99981.06;;;6.52;88.04
50282;BME280;36176;51.506;10.272;2023-05-24T00:05:23;99980.25;;;6.48;88.26
50282;BME280;36176;51.506;10.272;2023-05-24T00:07:51;99983.84;;;6.44;88.00
50282;BME280;36176;51.506;10.272;2023-05-24T00:10:18;99982.13;;;6.43;87.82
50282;BME280;36176;51.506;10.272;2023-05-24T00:12:45;99980.50;;;6.36;87.83
50282;BME280;36176;51.506;10.272;2023-05-24T00:15:12;99978.91;;;6.29;87.82
50282;BME280;36176;51.506;10.272;2023-05-24T00:17:39;99986.88;;;6.26;87.70
50282;BME280;36176;51.506;10.272;2023-05-24T00:20:09;99988.66;;;6.25;87.96
50282;BME280;36176;51.506;10.272;2023-05-24T00:22:38;99995.72;;;6.23;87.81
50282;BME280;36176;51.506;10.272;2023-05-24T00:25:06;99991.41;;;6.19;87.76
50282;BME280;36176;51.506;10.272;2023-05-24T00:27:34;99993.25;;;6.14;87.56
50282;BME280;36176;51.506;10.272;2023-05-24T00:30:04;99993.44;;;6.06;88.10
50282;BME280;36176;51.506;10.272;2023-05-24T00:32:32;99998.88;;;5.97;88.22
50282;BME280;36176;51.506;10.272;2023-05-24T00:34:59;99995.41;;;5.95;88.15
50282;BME280;36176;51.506;10.272;2023-05-24T00:37:26;99987.59;;;5.89;88.82
50282;BME280;36176;51.506;10.272;2023-05-24T00:39:55;99986.88;;;5.82;88.64
50282;BME280;36176;51.506;10.272;2023-05-24T00:42:22;99986.97;;;5.76;88.11
50282;BME280;36176;51.506;10.272;2023-05-24T00:44:49;99983.66;;;5.66;88.35
50282;BME280;36176;51.506;10.272;2023-05-24T00:47:17;99985.56;;;5.58;88.63
50282;BME280;36176;51.506;10.272;2023-05-24T00:49:44;99990.91;;;5.53;89.05
50282;BME280;36176;51.506;10.272;2023-05-24T00:52:13;99985.69;;;5.50;89.46
50282;BME280;36176;51.506;10.272;2023-05-24T00:54:40;99992.78;;;5.47;89.26
50282;BME280;36176;51.506;10.272;2023-05-24T00:57:07;99986.69;;;5.43;89.82
50282;BME280;36176;51.506;10.272;2023-05-24T00:59:35;99987.59;;;5.42;89.74
50282;BME280;36176;51.506;10.272;2023-05-24T01:02:02;99986.75;;;5.40;89.97
50282;BME280;36176;51.506;10.272;2023-05-24T01:04:29;99985.03;;;5.39;90.32
50282;BME280;36176;51.506;10.272;2023-05-24T01:07:21;99985.03;;;5.39;90.55
50282;BME280;36176;51.506;10.272;2023-05-24T01:10:03;99979.81;;;5.36;90.22
50282;BME280;36176;51.506;10.272;2023-05-24T01:12:51;99979.00;;;5.32;90.20
50282;BME280;36176;51.506;10.272;2023-05-24T01:15:58;99979.94;;;5.30;91.09
50282;BME280;36176;51.506;10.272;2023-05-24T01:18:37;99980.00;;;5.27;91.10
50282;BME280;36176;51.506;10.272;2023-05-24T01:27:05;99979.31;;;5.16;90.95
50282;BME280;36176;51.506;10.272;2023-05-24T01:29:34;99987.28;;;5.09;90.29
50282;BME280;36176;51.506;10.272;2023-05-24T01:32:02;99986.59;;;4.98;90.56
50282;BME280;36176;51.506;10.272;2023-05-24T01:34:29;99985.06;;;4.85;91.19
50282;BME280;36176;51.506;10.272;2023-05-24T01:36:56;99985.19;;;4.76;91.93
50282;BME280;36176;51.506;10.272;2023-05-24T01:39:26;99984.34;;;4.74;92.76
50282;BME280;36176;51.506;10.272;2023-05-24T01:44:54;99989.72;;;4.67;92.85
50282;BME280;36176;51.506;10.272;2023-05-24T01:49:57;99982.75;;;4.65;92.69
50282;BME280;36176;51.506;10.272;2023-05-24T01:52:28;99975.72;;;4.67;93.53
50282;BME280;36176;51.506;10.272;2023-05-24T01:54:56;99977.44;;;4.69;93.45
50282;BME280;36176;51.506;10.272;2023-05-24T01:57:25;99975.63;;;4.72;94.11
50282;BME280;36176;51.506;10.272;2023-05-24T01:59:54;99978.19;;;4.76;94.43
50282;BME280;36176;51.506;10.272;2023-05-24T02:02:23;99978.97;;;4.83;94.26
50282;BME280;36176;51.506;10.272;2023-05-24T02:04:51;99965.81;;;4.84;94.60
50282;BME280;36176;51.506;10.272;2023-05-24T02:07:18;99966.69;;;4.85;94.77
50282;BME280;36176;51.506;10.272;2023-05-24T02:09:46;99966.69;;;4.85;94.41
50282;BME280;36176;51.506;10.272;2023-05-24T02:12:13;99967.59;;;4.84;94.52
50282;BME280;36176;51.506;10.272;2023-05-24T02:14:43;99974.50;;;4.88;94.83
50282;BME280;36176;51.506;10.272;2023-05-24T02:17:10;99975.38;;;4.88;94.69
50282;BME280;36176;51.506;10.272;2023-05-24T02:19:37;99972.72;;;4.90;94.11
50282;BME280;36176;51.506;10.272;2023-05-24T02:22:04;99970.09;;;4.90;93.46
50282;BME280;36176;51.506;10.272;2023-05-24T02:24:33;99971.06;;;4.84;93.46
50282;BME280;36176;51.506;10.272;2023-05-24T02:27:00;99974.63;;;4.80;93.42
50282;BME280;36176;51.506;10.272;2023-05-24T02:29:28;99967.75;;;4.72;92.77
50282;BME280;36176;51.506;10.272;2023-05-24T02:31:55;99969.56;;;4.68;92.63
50282;BME280;36176;51.506;10.272;2023-05-24T02:34:23;99972.25;;;4.63;92.50
50282;BME280;36176;51.506;10.272;2023-05-24T02:36:50;99974.06;;;4.60;92.93
50282;BME280;36176;51.506;10.272;2023-05-24T02:39:20;99959.31;;;4.53;92.43
50282;BME280;36176;51.506;10.272;2023-05-24T02:41:47;99959.38;;;4.48;92.71
50282;BME280;36176;51.506;10.272;2023-05-24T02:44:15;99960.34;;;4.41;92.52
50282;BME280;36176;51.506;10.272;2023-05-24T02:46:42;99962.19;;;4.34;92.44
50282;BME280;36176;51.506;10.272;2023-05-24T02:49:09;99971.03;;;4.29;92.81
50282;BME280;36176;51.506;10.272;2023-05-24T02:51:36;99965.84;;;4.24;93.42
50282;BME280;36176;51.506;10.272;2023-05-24T02:54:05;99965.91;;;4.16;93.49
50282;BME280;36176;51.506;10.272;2023-05-24T02:56:32;99965.09;;;4.11;93.48
50282;BME280;36176;51.506;10.272;2023-05-24T02:59:00;99962.59;;;4.05;93.29
50282;BME280;36176;51.506;10.272;2023-05-24T03:01:27;99965.22;;;4.03;93.45
50282;BME280;36176;51.506;10.272;2023-05-24T03:03:54;99969.66;;;4.00;93.26
50282;BME280;36176;51.506;10.272;2023-05-24T03:06:22;99958.41;;;3.87;93.40
50282;BME280;36176;51.506;10.272;2023-05-24T03:08:49;99966.22;;;3.92;93.26
50282;BME280;36176;51.506;10.272;2023-05-24T03:11:17;99965.44;;;3.85;93.72
50282;BME280;36176;51.506;10.272;2023-05-24T03:13:48;99968.97;;;3.82;94.17
50282;BME280;36176;51.506;10.272;2023-05-24T03:16:15;99966.38;;;3.79;93.92
50282;BME280;36176;51.506;10.272;2023-05-24T03:18:43;99963.81;;;3.76;94.08
50282;BME280;36176;51.506;10.272;2023-05-24T03:21:10;99958.56;;;3.73;94.26
50282;BME280;36176;51.506;10.272;2023-05-24T03:23:37;99961.25;;;3.70;94.44
50282;BME280;36176;51.506;10.272;2023-05-24T03:26:05;99958.72;;;3.64;94.28
50282;BME280;36176;51.506;10.272;2023-05-24T03:28:33;99964.00;;;3.59;94.37
50282;BME280;36176;51.506;10.272;2023-05-24T03:31:00;99962.25;;;3.58;95.12
50282;BME280;36176;51.506;10.272;2023-05-24T03:33:27;99966.63;;;3.59;95.53
50282;BME280;36176;51.506;10.272;2023-05-24T03:35:54;99965.72;;;3.59;95.72
50282;BME280;36176;51.506;10.272;2023-05-24T03:38:22;99966.56;;;3.61;95.78
50282;BME280;36176;51.506;10.272;2023-05-24T03:40:49;99966.56;;;3.62;95.81
50282;BME280;36176;51.506;10.272;2023-05-24T03:43:16;99962.16;;;3.66;96.07
50282;BME280;36176;51.506;10.272;2023-05-24T03:45:44;99971.72;;;3.70;96.34
50282;BME280;36176;51.506;10.272;2023-05-24T03:48:12;99971.75;;;3.67;97.47
50282;BME280;36176;51.506;10.272;2023-05-24T03:50:39;99987.41;;;3.73;97.10
50282;BME280;36176;51.506;10.272;2023-05-24T03:53:07;99982.13;;;3.78;97.74
50282;BME280;36176;51.506;10.272;2023-05-24T03:55:34;99980.31;;;3.83;98.50
50282;BME280;36176;51.506;10.272;2023-05-24T03:58:01;99988.91;;;3.96;98.65
50282;BME280;36176;51.506;10.272;2023-05-24T04:00:28;99993.97;;;4.11;98.73
50282;BME280;36176;51.506;10.272;2023-05-24T04:02:55;99990.31;;;4.23;98.37
50282;BME280;36176;51.506;10.272;2023-05-24T04:05:22;99996.41;;;4.26;98.51
50282;BME280;36176;51.506;10.272;2023-05-24T04:07:53;99997.16;;;4.35;98.44
50282;BME280;36176;51.506;10.272;2023-05-24T04:10:22;100003.16;;;4.44;98.14
50282;BME280;36176;51.506;10.272;2023-05-24T04:12:49;100006.53;;;4.53;98.32
50282;BME280;36176;51.506;10.272;2023-05-24T04:15:17;100003.69;;;4.68;98.83
50282;BME280;36176;51.506;10.272;2023-05-24T04:17:45;100007.91;;;4.80;98.44
50282;BME280;36176;51.506;10.272;2023-05-24T04:20:12;99992.88;;;4.88;98.11
50282;BME280;36176;51.506;10.272;2023-05-24T04:22:39;99995.50;;;4.89;97.78
50282;BME280;36176;51.506;10.272;2023-05-24T04:25:07;99995.38;;;4.97;98.02
50282;BME280;36176;51.506;10.272;2023-05-24T04:27:36;99990.03;;;5.02;98.12
50282;BME280;36176;51.506;10.272;2023-05-24T04:30:03;100003.88;;;5.13;98.46
50282;BME280;36176;51.506;10.272;2023-05-24T04:32:31;100004.66;;;5.20;98.71
50282;BME280;36176;51.506;10.272;2023-05-24T04:34:59;100004.53;;;5.26;98.71
50282;BME280;36176;51.506;10.272;2023-05-24T04:37:28;100002.66;;;5.32;98.61
50282;BME280;36176;51.506;10.272;2023-05-24T04:39:57;100005.94;;;5.45;98.91
50282;BME280;36176;51.506;10.272;2023-05-24T04:42:25;100006.63;;;5.57;98.76
50282;BME280;36176;51.506;10.272;2023-05-24T04:44:53;100008.94;;;5.72;98.92
50282;BME280;36176;51.506;10.272;2023-05-24T04:47:20;100010.31;;;5.93;98.38
50282;BME280;36176;51.506;10.272;2023-05-24T04:49:47;100007.53;;;6.02;97.79
50282;BME280;36176;51.506;10.272;2023-05-24T04:52:14;100007.31;;;6.13;96.97
50282;BME280;36176;51.506;10.272;2023-05-24T04:54:41;100008.97;;;6.18;97.20
50282;BME280;36176;51.506;10.272;2023-05-24T04:57:09;100003.63;;;6.22;96.79
50282;BME280;36176;51.506;10.272;2023-05-24T04:59:36;100011.50;;;6.23;96.44
50282;BME280;36176;51.506;10.272;2023-05-24T05:02:03;100012.19;;;6.31;96.67
50282;BME280;36176;51.506;10.272;2023-05-24T05:04:31;100013.69;;;6.43;96.22
50282;BME280;36176;51.506;10.272;2023-05-24T05:06:58;100012.75;;;6.46;95.15
50282;BME280;36176;51.506;10.272;2023-05-24T05:09:25;100021.50;;;6.48;95.09
50282;BME280;36176;51.506;10.272;2023-05-24T05:11:52;100011.81;;;6.48;94.56
50282;BME280;36176;51.506;10.272;2023-05-24T05:14:19;100023.16;;;6.52;94.98
50282;BME280;36176;51.506;10.272;2023-05-24T05:16:46;100017.72;;;6.61;94.62
50282;BME280;36176;51.506;10.272;2023-05-24T05:19:15;100029.59;;;6.77;94.51
50282;BME280;36176;51.506;10.272;2023-05-24T05:21:42;100025.03;;;6.86;93.47
50282;BME280;36176;51.506;10.272;2023-05-24T05:24:11;100022.09;;;6.99;93.58
50282;BME280;36176;51.506;10.272;2023-05-24T05:26:38;100033.22;;;7.11;92.62
50282;BME280;36176;51.506;10.272;2023-05-24T05:29:05;100031.19;;;7.22;90.89
50282;BME280;36176;51.506;10.272;2023-05-24T05:31:33;100029.19;;;7.33;91.93
50282;BME280;36176;51.506;10.272;2023-05-24T05:34:00;100020.25;;;7.39;90.76
50282;BME280;36176;51.506;10.272;2023-05-24T05:36:29;100024.34;;;7.51;90.46
50282;BME280;36176;51.506;10.272;2023-05-24T05:38:56;100027.44;;;7.66;91.00
50282;BME280;36176;51.506;10.272;2023-05-24T05:41:23;100027.16;;;7.77;91.46
50282;BME280;36176;51.506;10.272;2023-05-24T05:43:51;100032.16;;;7.88;91.20
50282;BME280;36176;51.506;10.272;2023-05-24T05:46:18;100032.88;;;7.93;90.62
50282;BME280;36176;51.506;10.272;2023-05-24T05:48:47;100029.16;;;8.00;90.57
50282;BME280;36176;51.506;10.272;2023-05-24T05:51:15;100028.91;;;8.09;90.75
50282;BME280;36176;51.506;10.272;2023-05-24T05:53:42;100026.09;;;8.16;89.66
50282;BME280;36176;51.506;10.272;2023-05-24T05:56:10;100032.06;;;8.22;89.61
50282;BME280;36176;51.506;10.272;2023-05-24T05:58:37;100022.19;;;8.29;88.63
50282;BME280;36176;51.506;10.272;2023-05-24T06:01:05;100027.22;;;8.38;88.49
50282;BME280;36176;51.506;10.272;2023-05-24T06:03:32;100033.97;;;8.48;88.09
50282;BME280;36176;51.506;10.272;2023-05-24T06:05:59;100033.00;;;8.52;87.14
50282;BME280;36176;51.506;10.272;2023-05-24T06:08:27;100039.72;;;8.63;87.05
50282;BME280;36176;51.506;10.272;2023-05-24T06:10:56;100031.41;;;8.75;86.68
50282;BME280;36176;51.506;10.272;2023-05-24T06:13:23;100026.72;;;8.85;86.16
50282;BME280;36176;51.506;10.272;2023-05-24T06:15:53;100026.44;;;8.94;85.73
50282;BME280;36176;51.506;10.272;2023-05-24T06:18:20;100013.53;;;9.11;86.07
50282;BME280;36176;51.506;10.272;2023-05-24T06:20:50;100026.03;;;9.33;85.59
50282;BME280;36176;51.506;10.272;2023-05-24T06:23:17;100023.75;;;9.49;84.76
50282;BME280;36176;51.506;10.272;2023-05-24T06:25:44;100027.53;;;9.67;83.75
50282;BME280;36176;51.506;10.272;2023-05-24T06:28:13;100032.25;;;9.84;83.07
50282;BME280;36176;51.506;10.272;2023-05-24T06:30:40;100024.66;;;9.98;81.50
50282;BME280;36176;51.506;10.272;2023-05-24T06:33:08;100033.06;;;10.11;81.50
50282;BME280;36176;51.506;10.272;2023-05-24T06:35:35;100042.91;;;10.32;80.96
50282;BME280;36176;51.506;10.272;2023-05-24T06:38:02;100034.16;;;10.54;79.78
50282;BME280;36176;51.506;10.272;2023-05-24T06:40:29;100045.69;;;10.75;80.28
50282;BME280;36176;51.506;10.272;2023-05-24T06:42:57;100044.97;;;10.93;79.36
50282;BME280;36176;51.506;10.272;2023-05-24T06:45:25;100048.94;;;11.05;76.98
50282;BME280;36176;51.506;10.272;2023-05-24T06:47:52;100053.25;;;11.07;78.21
50282;BME280;36176;51.506;10.272;2023-05-24T06:50:19;100056.56;;;11.13;77.58
50282;BME280;36176;51.506;10.272;2023-05-24T06:52:47;100057.16;;;11.21;76.67
50282;BME280;36176;51.506;10.272;2023-05-24T06:55:14;100059.66;;;11.24;75.99
50282;BME280;36176;51.506;10.272;2023-05-24T06:57:41;100055.88;;;11.29;75.70
50282;BME280;36176;51.506;10.272;2023-05-24T07:00:09;100058.84;;;11.22;74.89
50282;BME280;36176;51.506;10.272;2023-05-24T07:02:38;100058.63;;;11.28;75.77
50282;BME280;36176;51.506;10.272;2023-05-24T07:05:06;100057.19;;;11.41;75.58
50282;BME280;36176;51.506;10.272;2023-05-24T07:07:39;100053.75;;;11.60;74.80
50282;BME280;36176;51.506;10.272;2023-05-24T07:10:07;100058.88;;;11.64;73.60
50282;BME280;36176;51.506;10.272;2023-05-24T07:12:34;100047.50;;;11.61;73.30
50282;BME280;36176;51.506;10.272;2023-05-24T07:15:03;100045.34;;;11.70;73.22
50282;BME280;36176;51.506;10.272;2023-05-24T07:17:32;100045.78;;;12.02;74.56
50282;BME280;36176;51.506;10.272;2023-05-24T07:19:59;100044.94;;;12.60;74.05
50282;BME280;36176;51.506;10.272;2023-05-24T07:22:27;100041.53;;;13.13;71.88
50282;BME280;36176;51.506;10.272;2023-05-24T07:24:55;100043.81;;;13.57;70.18
50282;BME280;36176;51.506;10.272;2023-05-24T07:27:23;100045.97;;;14.19;67.33
50282;BME280;36176;51.506;10.272;2023-05-24T07:29:50;100051.91;;;14.41;63.86
50282;BME280;36176;51.506;10.272;2023-05-24T07:32:17;100045.78;;;14.39;63.75
50282;BME280;36176;51.506;10.272;2023-05-24T07:34:44;100055.56;;;14.56;63.01
50282;BME280;36176;51.506;10.272;2023-05-24T07:37:11;100044.56;;;14.78;63.23
50282;BME280;36176;51.506;10.272;2023-05-24T07:39:38;100049.81;;;14.96;62.70
50282;BME280;36176;51.506;10.272;2023-05-24T07:42:05;100049.91;;;15.10;60.76
50282;BME280;36176;51.506;10.272;2023-05-24T07:44:33;100060.59;;;15.56;62.70
50282;BME280;36176;51.506;10.272;2023-05-24T07:47:00;100063.03;;;15.91;59.25
50282;BME280;36176;51.506;10.272;2023-05-24T07:49:28;100065.91;;;15.88;58.45
50282;BME280;36176;51.506;10.272;2023-05-24T07:51:55;100065.28;;;16.27;57.12
50282;BME280;36176;51.506;10.272;2023-05-24T07:54:25;100069.97;;;16.24;58.59
50282;BME280;36176;51.506;10.272;2023-05-24T07:56:52;100076.38;;;16.21;58.57
50282;BME280;36176;51.506;10.272;2023-05-24T07:59:19;100076.78;;;15.99;58.01
50282;BME280;36176;51.506;10.272;2023-05-24T08:01:47;100077.72;;;15.38;55.34
50282;BME280;36176;51.506;10.272;2023-05-24T08:04:14;100073.63;;;14.67;57.16
50282;BME280;36176;51.506;10.272;2023-05-24T08:06:42;100073.00;;;14.29;59.06
50282;BME280;36176;51.506;10.272;2023-05-24T08:09:09;100074.28;;;14.04;60.44
50282;BME280;36176;51.506;10.272;2023-05-24T08:11:36;100067.75;;;14.27;63.19
50282;BME280;36176;51.506;10.272;2023-05-24T08:14:03;100068.69;;;14.26;60.93
50282;BME280;36176;51.506;10.272;2023-05-24T08:16:30;100064.38;;;14.23;60.18
50282;BME280;36176;51.506;10.272;2023-05-24T08:18:58;100067.63;;;14.13;60.41
50282;BME280;36176;51.506;10.272;2023-05-24T08:21:25;100073.03;;;14.11;59.99
50282;BME280;36176;51.506;10.272;2023-05-24T08:23:53;100076.53;;;14.12;62.39
50282;BME280;36176;51.506;10.272;2023-05-24T08:26:20;100068.13;;;14.37;61.48
50282;BME280;36176;51.506;10.272;2023-05-24T08:28:47;100062.47;;;14.76;61.70
50282;BME280;36176;51.506;10.272;2023-05-24T08:31:15;100069.03;;;15.18;59.42
50282;BME280;36176;51.506;10.272;2023-05-24T08:33:42;100069.31;;;15.60;58.75
50282;BME280;36176;51.506;10.272;2023-05-24T08:36:09;100062.75;;;15.95;56.46
50282;BME280;36176;51.506;10.272;2023-05-24T08:38:37;100069.50;;;16.46;54.93
50282;BME280;36176;51.506;10.272;2023-05-24T08:41:05;100073.69;;;17.07;54.20
50282;BME280;36176;51.506;10.272;2023-05-24T08:43:35;100072.25;;;17.43;51.13
50282;BME280;36176;51.506;10.272;2023-05-24T08:46:04;100080.44;;;17.27;49.80
50282;BME280;36176;51.506;10.272;2023-05-24T08:48:41;100072.03;;;17.46;52.14
50282;BME280;36176;51.506;10.272;2023-05-24T08:51:12;100081.03;;;17.18;50.24
50282;BME280;36176;51.506;10.272;2023-05-24T08:53:39;100083.25;;;16.97;52.77
50282;BME280;36176;51.506;10.272;2023-05-24T08:56:07;100085.81;;;17.81;53.50
50282;BME280;36176;51.506;10.272;2023-05-24T08:58:37;100080.59;;;18.57;52.05
50282;BME280;36176;51.506;10.272;2023-05-24T09:01:05;100085.75;;;18.85;52.01
50282;BME280;36176;51.506;10.272;2023-05-24T09:03:35;100085.84;;;18.84;47.02
50282;BME280;36176;51.506;10.272;2023-05-24T09:06:03;100083.06;;;18.09;45.75
50282;BME280;36176;51.506;10.272;2023-05-24T09:08:31;100089.88;;;17.33;47.76
50282;BME280;36176;51.506;10.272;2023-05-24T09:11:02;100096.78;;;16.81;49.99
50282;BME280;36176;51.506;10.272;2023-05-24T09:13:30;100089.84;;;16.48;48.20
50282;BME280;36176;51.506;10.272;2023-05-24T09:15:58;100081.47;;;16.40;50.30
50282;BME280;36176;51.506;10.272;2023-05-24T09:18:26;100075.06;;;16.43;53.05
50282;BME280;36176;51.506;10.272;2023-05-24T09:20:53;100080.00;;;16.77;51.48
50282;BME280;36176;51.506;10.272;2023-05-24T09:23:21;100087.56;;;16.85;47.71
50282;BME280;36176;51.506;10.272;2023-05-24T09:25:49;100082.69;;;16.77;50.48
50282;BME280;36176;51.506;10.272;2023-05-24T09:28:17;100083.19;;;16.98;51.92
50282;BME280;36176;51.506;10.272;2023-05-24T09:30:56;100076.81;;;17.14;48.33
50282;BME280;36176;51.506;10.272;2023-05-24T09:33:28;100080.41;;;17.00;47.38
50282;BME280;36176;51.506;10.272;2023-05-24T09:35:57;100080.31;;;16.87;49.44
50282;BME280;36176;51.506;10.272;2023-05-24T09:38:25;100074.00;;;16.45;50.38
50282;BME280;36176;51.506;10.272;2023-05-24T09:41:02;100074.47;;;16.37;49.46
50282;BME280;36176;51.506;10.272;2023-05-24T09:43:33;100072.84;;;15.76;49.56
50282;BME280;36176;51.506;10.272;2023-05-24T09:46:02;100070.72;;;15.03;52.10
50282;BME280;36176;51.506;10.272;2023-05-24T09:48:30;100077.97;;;14.85;53.42
50282;BME280;36176;51.506;10.272;2023-05-24T09:51:05;100072.44;;;14.88;54.06
50282;BME280;36176;51.506;10.272;2023-05-24T09:53:34;100074.88;;;14.77;53.59
50282;BME280;36176;51.506;10.272;2023-05-24T09:56:03;100070.53;;;14.75;54.09
50282;BME280;36176;51.506;10.272;2023-05-24T09:58:34;100067.00;;;14.58;53.01
50282;BME280;36176;51.506;10.272;2023-05-24T10:01:03;100071.56;;;14.39;54.54
50282;BME280;36176;51.506;10.272;2023-05-24T10:03:34;100069.22;;;14.33;54.69
50282;BME280;36176;51.506;10.272;2023-05-24T10:06:05;100074.00;;;14.93;57.22
50282;BME280;36176;51.506;10.272;2023-05-24T10:08:34;100071.41;;;15.85;55.65
50282;BME280;36176;51.506;10.272;2023-05-24T10:11:02;100066.25;;;16.69;52.95
50282;BME280;36176;51.506;10.272;2023-05-24T10:13:34;100066.81;;;17.84;50.14
50282;BME280;36176;51.506;10.272;2023-05-24T10:16:02;100075.31;;;18.04;48.16
50282;BME280;36176;51.506;10.272;2023-05-24T10:18:30;100077.13;;;17.63;46.20
50282;BME280;36176;51.506;10.272;2023-05-24T10:20:58;100084.00;;;17.13;46.21
50282;BME280;36176;51.506;10.272;2023-05-24T10:23:31;100080.53;;;16.84;46.90
50282;BME280;36176;51.506;10.272;2023-05-24T10:26:03;100079.94;;;16.65;49.75
50282;BME280;36176;51.506;10.272;2023-05-24T10:28:49;100091.78;;;16.61;47.71
50282;BME280;36176;51.506;10.272;2023-05-24T10:31:29;100078.09;;;16.51;49.93
50282;BME280;36176;51.506;10.272;2023-05-24T10:33:59;100080.09;;;16.62;50.94
50282;BME280;36176;51.506;10.272;2023-05-24T10:36:34;100067.91;;;16.57;49.93
50282;BME280;36176;51.506;10.272;2023-05-24T10:39:03;100065.22;;;16.43;49.51
50282;BME280;36176;51.506;10.272;2023-05-24T10:41:38;100070.16;;;16.21;48.75
50282;BME280;36176;51.506;10.272;2023-05-24T10:44:11;100072.13;;;16.03;50.01
50282;BME280;36176;51.506;10.272;2023-05-24T10:47:12;100067.81;;;15.86;49.96
50282;BME280;36176;51.506;10.272;2023-05-24T10:49:50;100070.34;;;15.73;50.80
50282;BME280;36176;51.506;10.272;2023-05-24T10:52:20;100079.59;;;15.51;50.79
50282;BME280;36176;51.506;10.272;2023-05-24T10:55:08;100074.72;;;15.28;51.59
50282;BME280;36176;51.506;10.272;2023-05-24T10:57:37;100079.59;;;15.20;49.96
50282;BME280;36176;51.506;10.272;2023-05-24T11:03:07;100065.56;;;15.32;51.34
50282;BME280;36176;51.506;10.272;2023-05-24T11:05:49;100072.25;;;15.55;52.49
50282;BME280;36176;51.506;10.272;2023-05-24T11:08:22;100079.47;;;15.69;52.25
50282;BME280;36176;51.506;10.272;2023-05-24T11:11:14;100079.34;;;15.86;51.47
50282;BME280;36176;51.506;10.272;2023-05-24T11:13:55;100086.75;;;15.97;51.38
50282;BME280;36176;51.506;10.272;2023-05-24T11:16:35;100083.72;;;16.17;51.64
50282;BME280;36176;51.506;10.272;2023-05-24T11:19:23;100081.56;;;16.53;50.78
50282;BME280;36176;51.506;10.272;2023-05-24T11:21:56;100081.34;;;16.70;51.17
50282;BME280;36176;51.506;10.272;2023-05-24T11:24:26;100083.28;;;16.83;50.01
50282;BME280;36176;51.506;10.272;2023-05-24T11:26:55;100074.69;;;17.19;49.17
50282;BME280;36176;51.506;10.272;2023-05-24T11:29:23;100076.03;;;17.53;48.25
50282;BME280;36176;51.506;10.272;2023-05-24T11:31:52;100078.41;;;17.58;49.29
50282;BME280;36176;51.506;10.272;2023-05-24T11:34:20;100079.28;;;17.71;47.25
50282;BME280;36176;51.506;10.272;2023-05-24T11:36:48;100070.16;;;17.88;45.57
50282;BME280;36176;51.506;10.272;2023-05-24T11:39:16;100062.75;;;17.92;45.28
50282;BME280;36176;51.506;10.272;2023-05-24T11:41:43;100061.03;;;17.91;49.82
50282;BME280;36176;51.506;10.272;2023-05-24T11:44:16;100057.75;;;18.25;48.06
50282;BME280;36176;51.506;10.272;2023-05-24T11:46:43;100058.81;;;18.87;48.16
50282;BME280;36176;51.506;10.272;2023-05-24T11:49:12;100055.41;;;18.96;43.18
50282;BME280;36176;51.506;10.272;2023-05-24T11:51:40;100060.09;;;19.18;45.20
50282;BME280;36176;51.506;10.272;2023-05-24T11:54:08;100060.03;;;19.31;46.42
50282;BME280;36176;51.506;10.272;2023-05-24T11:56:36;100055.34;;;19.22;42.26
50282;BME280;36176;51.506;10.272;2023-05-24T11:59:26;100056.94;;;19.00;43.83
50282;BME280;36176;51.506;10.272;2023-05-24T12:02:03;100052.88;;;18.95;44.35
50282;BME280;36176;51.506;10.272;2023-05-24T12:04:32;100047.31;;;18.85;45.64
50282;BME280;36176;51.506;10.272;2023-05-24T12:07:01;100050.06;;;18.96;44.70
50282;BME280;36176;51.506;10.272;2023-05-24T12:09:29;100047.69;;;19.04;46.98
50282;BME280;36176;51.506;10.272;2023-05-24T12:11:57;100047.78;;;19.03;46.21
50282;BME280;36176;51.506;10.272;2023-05-24T12:14:29;100049.09;;;18.97;45.41
50282;BME280;36176;51.506;10.272;2023-05-24T12:16:58;100049.78;;;18.62;44.58
50282;BME280;36176;51.506;10.272;2023-05-24T12:19:38;100060.66;;;18.22;44.58
50282;BME280;36176;51.506;10.272;2023-05-24T12:22:08;100056.56;;;17.91;46.60
50282;BME280;36176;51.506;10.272;2023-05-24T12:24:36;100050.13;;;17.94;47.12
50282;BME280;36176;51.506;10.272;2023-05-24T12:27:05;100050.78;;;18.36;46.80
50282;BME280;36176;51.506;10.272;2023-05-24T12:29:37;100055.16;;;18.49;45.56
50282;BME280;36176;51.506;10.272;2023-05-24T12:32:08;100051.63;;;18.36;45.62
50282;BME280;36176;51.506;10.272;2023-05-24T12:34:42;100057.22;;;18.20;45.65
50282;BME280;36176;51.506;10.272;2023-05-24T12:37:11;100050.88;;;18.21;46.19
50282;BME280;36176;51.506;10.272;2023-05-24T12:39:41;100056.78;;;18.26;46.89
50282;BME280;36176;51.506;10.272;2023-05-24T12:42:11;100053.34;;;18.37;46.86
50282;BME280;36176;51.506;10.272;2023-05-24T12:44:39;100050.66;;;18.50;45.86
50282;BME280;36176;51.506;10.272;2023-05-24T12:47:08;100047.75;;;18.79;46.58
50282;BME280;36176;51.506;10.272;2023-05-24T12:49:36;100049.91;;;19.34;46.40
50282;BME280;36176;51.506;10.272;2023-05-24T12:52:04;100049.53;;;20.34;46.02
50282;BME280;36176;51.506;10.272;2023-05-24T12:54:33;100048.19;;;21.07;42.98
50282;BME280;36176;51.506;10.272;2023-05-24T12:57:01;100054.06;;;21.01;41.86
50282;BME280;36176;51.506;10.272;2023-05-24T12:59:32;100044.19;;;20.79;43.20
50282;BME280;36176;51.506;10.272;2023-05-24T13:01:59;100043.31;;;20.33;41.87
50282;BME280;36176;51.506;10.272;2023-05-24T13:04:27;100043.34;;;19.98;44.12
50282;BME280;36176;51.506;10.272;2023-05-24T13:06:57;100049.34;;;19.90;45.25
50282;BME280;36176;51.506;10.272;2023-05-24T13:09:24;100046.41;;;19.93;46.23
50282;BME280;36176;51.506;10.272;2023-05-24T13:11:55;100046.44;;;20.16;46.41